sensor_id;sensor_type;location;lat;lon;timestamp;P1;durP1;ratioP1;P2;durP2;ratioP2
31402;SDS011;18039;52.188;21.024;2023-03-01T00:01:24;84.80;;;36.83;;
31402;SDS011;18039;52.188;21.024;2023-03-01T00:03:57;93.82;;;38.42;;
31402;SDS011;18039;52.188;21.024;2023-03-01T00:06:29;75.07;;;32.15;;
31402;SDS011;18039;52.188;21.024;2023-03-01T00:09:01;80.93;;;34.00;;
31402;SDS011;18039;52.188;21.024;2023-03-01T00:11:33;85.50;;;35.05;;
31402;SDS011;18039;52.188;21.024;2023-03-01T00:14:05;80.97;;;37.30;;
31402;SDS011;18039;52.188;21.024;2023-03-01T00:16:41;87.22;;;36.17;;
31402;SDS011;18039;52.188;21.024;2023-03-01T00:19:14;86.78;;;36.10;;
31402;SDS011;18039;52.188;21.024;2023-03-01T00:21:47;90.97;;;36.15;;
31402;SDS011;18039;52.188;21.024;2023-03-01T00:24:19;90.60;;;38.55;;
31402;SDS011;18039;52.188;21.024;2023-03-01T00:26:52;83.18;;;36.50;;
31402;SDS011;18039;52.188;21.024;2023-03-01T00:29:25;92.07;;;35.95;;
31402;SDS011;18039;52.188;21.024;2023-03-01T00:31:55;89.57;;;36.83;;
31402;SDS011;18039;52.188;21.024;2023-03-01T00:34:25;99.80;;;37.30;;
31402;SDS011;18039;52.188;21.024;2023-03-01T00:36:56;90.70;;;38.03;;
31402;SDS011;18039;52.188;21.024;2023-03-01T00:39:36;87.65;;;35.10;;
31402;SDS011;18039;52.188;21.024;2023-03-01T00:42:05;76.65;;;34.75;;
31402;SDS011;18039;52.188;21.024;2023-03-01T00:44:36;82.90;;;32.95;;
31402;SDS011;18039;52.188;21.024;2023-03-01T00:47:07;78.25;;;34.03;;
31402;SDS011;18039;52.188;21.024;2023-03-01T00:49:36;74.47;;;32.80;;
31402;SDS011;18039;52.188;21.024;2023-03-01T00:52:08;78.18;;;33.25;;
31402;SDS011;18039;52.188;21.024;2023-03-01T00:54:38;75.70;;;34.10;;
31402;SDS011;18039;52.188;21.024;2023-03-01T00:57:08;79.13;;;32.97;;
31402;SDS011;18039;52.188;21.024;2023-03-01T00:59:39;70.85;;;31.65;;
31402;SDS011;18039;52.188;21.024;2023-03-01T01:02:10;81.47;;;34.33;;
31402;SDS011;18039;52.188;21.024;2023-03-01T01:04:39;75.38;;;32.65;;
31402;SDS011;18039;52.188;21.024;2023-03-01T01:07:08;73.70;;;32.53;;
31402;SDS011;18039;52.188;21.024;2023-03-01T01:09:37;72.45;;;32.83;;
31402;SDS011;18039;52.188;21.024;2023-03-01T01:12:07;71.55;;;32.95;;
31402;SDS011;18039;52.188;21.024;2023-03-01T01:14:39;74.05;;;31.98;;
31402;SDS011;18039;52.188;21.024;2023-03-01T01:17:07;81.28;;;33.03;;
31402;SDS011;18039;52.188;21.024;2023-03-01T01:19:39;76.07;;;32.95;;
31402;SDS011;18039;52.188;21.024;2023-03-01T01:22:09;77.28;;;32.30;;
31402;SDS011;18039;52.188;21.024;2023-03-01T01:24:40;79.07;;;33.83;;
31402;SDS011;18039;52.188;21.024;2023-03-01T01:27:07;70.47;;;31.05;;
31402;SDS011;18039;52.188;21.024;2023-03-01T01:29:38;74.53;;;33.65;;
31402;SDS011;18039;52.188;21.024;2023-03-01T01:32:11;75.55;;;31.15;;
31402;SDS011;18039;52.188;21.024;2023-03-01T01:34:40;70.72;;;28.70;;
31402;SDS011;18039;52.188;21.024;2023-03-01T01:37:12;68.43;;;30.42;;
31402;SDS011;18039;52.188;21.024;2023-03-01T01:39:41;65.35;;;29.33;;
31402;SDS011;18039;52.188;21.024;2023-03-01T01:42:16;67.60;;;31.95;;
31402;SDS011;18039;52.188;21.024;2023-03-01T01:44:48;62.72;;;25.48;;
31402;SDS011;18039;52.188;21.024;2023-03-01T01:48:02;70.97;;;28.25;;
31402;SDS011;18039;52.188;21.024;2023-03-01T01:50:35;64.22;;;26.20;;
31402;SDS011;18039;52.188;21.024;2023-03-01T01:53:15;70.43;;;29.88;;
31402;SDS011;18039;52.188;21.024;2023-03-01T01:55:51;66.85;;;28.73;;
31402;SDS011;18039;52.188;21.024;2023-03-01T01:58:26;64.53;;;29.13;;
31402;SDS011;18039;52.188;21.024;2023-03-01T02:01:00;67.65;;;29.77;;
31402;SDS011;18039;52.188;21.024;2023-03-01T02:03:32;62.13;;;28.85;;
31402;SDS011;18039;52.188;21.024;2023-03-01T02:06:06;63.95;;;27.52;;
31402;SDS011;18039;52.188;21.024;2023-03-01T02:08:47;63.07;;;28.33;;
31402;SDS011;18039;52.188;21.024;2023-03-01T02:11:18;66.15;;;28.95;;
31402;SDS011;18039;52.188;21.024;2023-03-01T02:13:50;67.32;;;28.13;;
31402;SDS011;18039;52.188;21.024;2023-03-01T02:16:21;64.63;;;27.77;;
31402;SDS011;18039;52.188;21.024;2023-03-01T02:18:52;67.25;;;28.13;;
31402;SDS011;18039;52.188;21.024;2023-03-01T02:27:14;67.57;;;27.48;;
31402;SDS011;18039;52.188;21.024;2023-03-01T02:29:48;73.05;;;28.02;;
31402;SDS011;18039;52.188;21.024;2023-03-01T02:32:17;67.03;;;29.85;;
31402;SDS011;18039;52.188;21.024;2023-03-01T02:34:55;68.40;;;29.58;;
31402;SDS011;18039;52.188;21.024;2023-03-01T02:37:25;69.25;;;30.13;;
31402;SDS011;18039;52.188;21.024;2023-03-01T02:39:59;67.53;;;28.38;;
31402;SDS011;18039;52.188;21.024;2023-03-01T02:42:31;69.68;;;28.75;;
31402;SDS011;18039;52.188;21.024;2023-03-01T02:45:06;69.25;;;28.63;;
31402;SDS011;18039;52.188;21.024;2023-03-01T02:47:36;71.30;;;29.67;;
31402;SDS011;18039;52.188;21.024;2023-03-01T02:51:01;70.00;;;28.58;;
31402;SDS011;18039;52.188;21.024;2023-03-01T02:53:02;70.25;;;29.00;;
31402;SDS011;18039;52.188;21.024;2023-03-01T02:55:41;72.20;;;29.65;;
31402;SDS011;18039;52.188;21.024;2023-03-01T02:58:10;72.60;;;29.88;;
31402;SDS011;18039;52.188;21.024;2023-03-01T03:00:42;76.10;;;29.05;;
31402;SDS011;18039;52.188;21.024;2023-03-01T03:03:16;68.47;;;31.08;;
31402;SDS011;18039;52.188;21.024;2023-03-01T03:05:50;66.35;;;29.58;;
31402;SDS011;18039;52.188;21.024;2023-03-01T03:08:19;68.85;;;30.45;;
31402;SDS011;18039;52.188;21.024;2023-03-01T03:10:54;67.15;;;28.70;;
31402;SDS011;18039;52.188;21.024;2023-03-01T03:13:24;73.40;;;30.40;;
31402;SDS011;18039;52.188;21.024;2023-03-01T03:16:01;67.28;;;28.75;;
31402;SDS011;18039;52.188;21.024;2023-03-01T03:18:31;65.75;;;29.60;;
31402;SDS011;18039;52.188;21.024;2023-03-01T03:21:02;73.13;;;29.17;;
31402;SDS011;18039;52.188;21.024;2023-03-01T03:23:31;61.97;;;27.52;;
31402;SDS011;18039;52.188;21.024;2023-03-01T03:26:03;72.75;;;28.83;;
31402;SDS011;18039;52.188;21.024;2023-03-01T03:28:37;75.10;;;30.55;;
31402;SDS011;18039;52.188;21.024;2023-03-01T03:31:10;69.55;;;28.52;;
31402;SDS011;18039;52.188;21.024;2023-03-01T03:33:42;73.28;;;28.00;;
31402;SDS011;18039;52.188;21.024;2023-03-01T03:36:16;75.13;;;31.17;;
31402;SDS011;18039;52.188;21.024;2023-03-01T03:38:47;62.90;;;27.70;;
31402;SDS011;18039;52.188;21.024;2023-03-01T03:41:19;68.15;;;29.40;;
31402;SDS011;18039;52.188;21.024;2023-03-01T03:43:46;68.47;;;29.42;;
31402;SDS011;18039;52.188;21.024;2023-03-01T03:46:18;74.13;;;31.85;;
31402;SDS011;18039;52.188;21.024;2023-03-01T03:48:49;69.53;;;30.27;;
31402;SDS011;18039;52.188;21.024;2023-03-01T03:51:20;67.60;;;29.40;;
31402;SDS011;18039;52.188;21.024;2023-03-01T03:53:53;69.32;;;30.05;;
31402;SDS011;18039;52.188;21.024;2023-03-01T03:56:24;70.82;;;30.42;;
31402;SDS011;18039;52.188;21.024;2023-03-01T03:58:56;74.78;;;29.35;;
31402;SDS011;18039;52.188;21.024;2023-03-01T04:01:25;74.60;;;29.40;;
31402;SDS011;18039;52.188;21.024;2023-03-01T04:03:56;75.38;;;32.88;;
31402;SDS011;18039;52.188;21.024;2023-03-01T04:06:34;73.88;;;29.65;;
31402;SDS011;18039;52.188;21.024;2023-03-01T04:09:07;73.15;;;30.40;;
31402;SDS011;18039;52.188;21.024;2023-03-01T04:11:39;67.57;;;30.17;;
31402;SDS011;18039;52.188;21.024;2023-03-01T04:14:10;69.22;;;29.38;;
31402;SDS011;18039;52.188;21.024;2023-03-01T04:16:43;72.85;;;30.10;;
31402;SDS011;18039;52.188;21.024;2023-03-01T04:19:16;69.97;;;30.35;;
31402;SDS011;18039;52.188;21.024;2023-03-01T04:21:45;66.95;;;28.40;;
31402;SDS011;18039;52.188;21.024;2023-03-01T04:24:16;67.57;;;28.55;;
31402;SDS011;18039;52.188;21.024;2023-03-01T04:26:45;67.40;;;26.65;;
31402;SDS011;18039;52.188;21.024;2023-03-01T04:29:16;75.93;;;31.73;;
31402;SDS011;18039;52.188;21.024;2023-03-01T04:31:45;59.15;;;26.17;;
31402;SDS011;18039;52.188;21.024;2023-03-01T04:34:19;70.35;;;27.90;;
31402;SDS011;18039;52.188;21.024;2023-03-01T04:36:49;76.25;;;29.73;;
31402;SDS011;18039;52.188;21.024;2023-03-01T04:39:20;70.93;;;29.67;;
31402;SDS011;18039;52.188;21.024;2023-03-01T04:41:49;65.45;;;27.80;;
31402;SDS011;18039;52.188;21.024;2023-03-01T04:44:20;68.47;;;27.17;;
31402;SDS011;18039;52.188;21.024;2023-03-01T04:46:49;72.93;;;30.45;;
31402;SDS011;18039;52.188;21.024;2023-03-01T04:49:20;64.13;;;29.20;;
31402;SDS011;18039;52.188;21.024;2023-03-01T04:51:52;71.28;;;29.85;;
31402;SDS011;18039;52.188;21.024;2023-03-01T04:54:23;69.13;;;29.83;;
31402;SDS011;18039;52.188;21.024;2023-03-01T04:56:55;77.75;;;31.30;;
31402;SDS011;18039;52.188;21.024;2023-03-01T04:59:24;65.47;;;27.65;;
31402;SDS011;18039;52.188;21.024;2023-03-01T05:01:56;77.95;;;30.80;;
31402;SDS011;18039;52.188;21.024;2023-03-01T05:04:27;70.22;;;32.42;;
31402;SDS011;18039;52.188;21.024;2023-03-01T05:06:57;63.50;;;26.55;;
31402;SDS011;18039;52.188;21.024;2023-03-01T05:09:29;66.70;;;28.20;;
31402;SDS011;18039;52.188;21.024;2023-03-01T05:11:58;69.80;;;29.83;;
31402;SDS011;18039;52.188;21.024;2023-03-01T05:14:31;70.47;;;32.03;;
31402;SDS011;18039;52.188;21.024;2023-03-01T05:17:02;64.55;;;27.23;;
31402;SDS011;18039;52.188;21.024;2023-03-01T05:19:34;71.47;;;29.27;;
31402;SDS011;18039;52.188;21.024;2023-03-01T05:22:04;69.05;;;28.30;;
31402;SDS011;18039;52.188;21.024;2023-03-01T05:24:34;69.35;;;29.85;;
31402;SDS011;18039;52.188;21.024;2023-03-01T05:27:06;66.85;;;30.10;;
31402;SDS011;18039;52.188;21.024;2023-03-01T05:29:32;69.47;;;31.85;;
31402;SDS011;18039;52.188;21.024;2023-03-01T05:32:05;65.45;;;30.17;;
31402;SDS011;18039;52.188;21.024;2023-03-01T05:34:36;67.55;;;30.27;;
31402;SDS011;18039;52.188;21.024;2023-03-01T05:37:07;70.72;;;28.52;;
31402;SDS011;18039;52.188;21.024;2023-03-01T05:39:39;65.22;;;28.52;;
31402;SDS011;18039;52.188;21.024;2023-03-01T05:42:10;70.25;;;29.60;;
31402;SDS011;18039;52.188;21.024;2023-03-01T05:44:41;70.18;;;29.60;;
31402;SDS011;18039;52.188;21.024;2023-03-01T05:47:09;74.05;;;31.23;;
31402;SDS011;18039;52.188;21.024;2023-03-01T05:49:40;68.20;;;29.38;;
31402;SDS011;18039;52.188;21.024;2023-03-01T05:52:09;76.95;;;29.50;;
31402;SDS011;18039;52.188;21.024;2023-03-01T05:54:40;71.25;;;30.13;;
31402;SDS011;18039;52.188;21.024;2023-03-01T05:57:12;76.97;;;29.60;;
31402;SDS011;18039;52.188;21.024;2023-03-01T05:59:43;70.60;;;28.92;;
31402;SDS011;18039;52.188;21.024;2023-03-01T06:04:43;66.70;;;28.02;;
31402;SDS011;18039;52.188;21.024;2023-03-01T06:07:17;67.25;;;27.48;;
31402;SDS011;18039;52.188;21.024;2023-03-01T06:09:46;65.90;;;29.23;;
31402;SDS011;18039;52.188;21.024;2023-03-01T06:12:19;60.72;;;27.67;;
31402;SDS011;18039;52.188;21.024;2023-03-01T06:14:48;66.15;;;29.08;;
31402;SDS011;18039;52.188;21.024;2023-03-01T06:17:22;64.15;;;27.10;;
31402;SDS011;18039;52.188;21.024;2023-03-01T06:19:51;60.90;;;27.10;;
31402;SDS011;18039;52.188;21.024;2023-03-01T06:22:22;55.22;;;24.48;;
31402;SDS011;18039;52.188;21.024;2023-03-01T06:24:53;63.70;;;27.98;;
31402;SDS011;18039;52.188;21.024;2023-03-01T06:27:23;58.15;;;26.92;;
31402;SDS011;18039;52.188;21.024;2023-03-01T06:29:52;73.07;;;30.02;;
31402;SDS011;18039;52.188;21.024;2023-03-01T06:32:21;61.30;;;27.85;;
31402;SDS011;18039;52.188;21.024;2023-03-01T06:34:50;63.88;;;27.00;;
31402;SDS011;18039;52.188;21.024;2023-03-01T06:37:19;58.58;;;27.00;;
31402;SDS011;18039;52.188;21.024;2023-03-01T06:39:50;61.58;;;26.48;;
31402;SDS011;18039;52.188;21.024;2023-03-01T06:42:18;58.78;;;26.73;;
31402;SDS011;18039;52.188;21.024;2023-03-01T06:44:48;69.75;;;28.05;;
31402;SDS011;18039;52.188;21.024;2023-03-01T06:47:18;63.88;;;27.25;;
31402;SDS011;18039;52.188;21.024;2023-03-01T06:52:18;64.18;;;26.55;;
31402;SDS011;18039;52.188;21.024;2023-03-01T06:54:48;67.05;;;26.98;;
31402;SDS011;18039;52.188;21.024;2023-03-01T06:57:15;60.85;;;27.75;;
31402;SDS011;18039;52.188;21.024;2023-03-01T06:59:46;63.92;;;28.23;;
31402;SDS011;18039;52.188;21.024;2023-03-01T07:02:18;56.70;;;25.20;;
31402;SDS011;18039;52.188;21.024;2023-03-01T07:04:50;63.95;;;27.83;;
31402;SDS011;18039;52.188;21.024;2023-03-01T07:07:18;67.80;;;29.15;;
31402;SDS011;18039;52.188;21.024;2023-03-01T07:09:49;58.78;;;27.33;;
31402;SDS011;18039;52.188;21.024;2023-03-01T07:12:19;66.97;;;28.63;;
31402;SDS011;18039;52.188;21.024;2023-03-01T07:14:52;70.78;;;29.42;;
31402;SDS011;18039;52.188;21.024;2023-03-01T07:17:19;65.07;;;29.23;;
31402;SDS011;18039;52.188;21.024;2023-03-01T07:19:50;89.35;;;32.42;;
31402;SDS011;18039;52.188;21.024;2023-03-01T07:22:21;80.53;;;32.00;;
31402;SDS011;18039;52.188;21.024;2023-03-01T07:24:50;82.35;;;33.35;;
31402;SDS011;18039;52.188;21.024;2023-03-01T07:27:22;64.43;;;28.88;;
31402;SDS011;18039;52.188;21.024;2023-03-01T07:29:53;73.35;;;29.10;;
31402;SDS011;18039;52.188;21.024;2023-03-01T07:32:24;60.13;;;26.55;;
31402;SDS011;18039;52.188;21.024;2023-03-01T07:34:55;73.68;;;29.67;;
31402;SDS011;18039;52.188;21.024;2023-03-01T07:37:24;98.43;;;35.90;;
31402;SDS011;18039;52.188;21.024;2023-03-01T07:39:55;60.40;;;27.85;;
31402;SDS011;18039;52.188;21.024;2023-03-01T07:42:27;64.63;;;26.15;;
31402;SDS011;18039;52.188;21.024;2023-03-01T07:44:58;62.60;;;26.67;;
31402;SDS011;18039;52.188;21.024;2023-03-01T07:47:27;67.60;;;25.92;;
31402;SDS011;18039;52.188;21.024;2023-03-01T07:49:58;52.30;;;25.23;;
31402;SDS011;18039;52.188;21.024;2023-03-01T07:52:28;58.20;;;26.60;;
31402;SDS011;18039;52.188;21.024;2023-03-01T07:57:29;64.68;;;25.02;;
31402;SDS011;18039;52.188;21.024;2023-03-01T07:59:59;52.70;;;24.17;;
31402;SDS011;18039;52.188;21.024;2023-03-01T08:02:37;56.28;;;24.00;;
31402;SDS011;18039;52.188;21.024;2023-03-01T08:05:09;50.88;;;24.10;;
31402;SDS011;18039;52.188;21.024;2023-03-01T08:07:39;52.53;;;23.23;;
31402;SDS011;18039;52.188;21.024;2023-03-01T08:10:11;38.47;;;20.75;;
31402;SDS011;18039;52.188;21.024;2023-03-01T08:12:40;48.05;;;21.35;;
31402;SDS011;18039;52.188;21.024;2023-03-01T08:15:11;44.65;;;20.85;;
31402;SDS011;18039;52.188;21.024;2023-03-01T08:17:40;50.22;;;20.10;;
31402;SDS011;18039;52.188;21.024;2023-03-01T08:20:11;49.67;;;20.88;;
31402;SDS011;18039;52.188;21.024;2023-03-01T08:22:41;53.03;;;20.77;;
31402;SDS011;18039;52.188;21.024;2023-03-01T08:25:12;45.88;;;19.98;;
31402;SDS011;18039;52.188;21.024;2023-03-01T08:27:40;48.00;;;20.20;;
31402;SDS011;18039;52.188;21.024;2023-03-01T08:30:11;69.63;;;23.13;;
31402;SDS011;18039;52.188;21.024;2023-03-01T08:32:40;39.33;;;17.38;;
31402;SDS011;18039;52.188;21.024;2023-03-01T08:35:11;35.78;;;18.80;;
31402;SDS011;18039;52.188;21.024;2023-03-01T08:37:41;35.15;;;18.40;;
31402;SDS011;18039;52.188;21.024;2023-03-01T08:40:10;40.05;;;18.88;;
31402;SDS011;18039;52.188;21.024;2023-03-01T08:42:42;40.60;;;19.52;;
31402;SDS011;18039;52.188;21.024;2023-03-01T08:45:13;36.53;;;17.23;;
31402;SDS011;18039;52.188;21.024;2023-03-01T08:47:46;38.45;;;18.42;;
31402;SDS011;18039;52.188;21.024;2023-03-01T08:50:17;37.63;;;18.00;;
31402;SDS011;18039;52.188;21.024;2023-03-01T08:52:49;35.00;;;17.70;;
31402;SDS011;18039;52.188;21.024;2023-03-01T08:55:20;36.20;;;18.42;;
31402;SDS011;18039;52.188;21.024;2023-03-01T08:57:51;33.40;;;17.67;;
31402;SDS011;18039;52.188;21.024;2023-03-01T09:00:22;37.28;;;17.95;;
31402;SDS011;18039;52.188;21.024;2023-03-01T09:02:51;37.97;;;18.20;;
31402;SDS011;18039;52.188;21.024;2023-03-01T09:05:23;37.60;;;18.70;;
31402;SDS011;18039;52.188;21.024;2023-03-01T09:07:52;39.15;;;17.70;;
31402;SDS011;18039;52.188;21.024;2023-03-01T09:10:23;38.95;;;18.30;;
31402;SDS011;18039;52.188;21.024;2023-03-01T09:12:53;35.85;;;17.85;;
31402;SDS011;18039;52.188;21.024;2023-03-01T09:15:24;33.30;;;17.60;;
31402;SDS011;18039;52.188;21.024;2023-03-01T09:17:54;44.50;;;18.48;;
31402;SDS011;18039;52.188;21.024;2023-03-01T09:20:25;38.90;;;19.45;;
31402;SDS011;18039;52.188;21.024;2023-03-01T09:22:54;41.75;;;18.80;;
31402;SDS011;18039;52.188;21.024;2023-03-01T09:25:23;41.67;;;18.77;;
31402;SDS011;18039;52.188;21.024;2023-03-01T09:27:53;40.25;;;18.25;;
31402;SDS011;18039;52.188;21.024;2023-03-01T09:30:25;39.20;;;18.73;;
31402;SDS011;18039;52.188;21.024;2023-03-01T09:32:56;34.72;;;17.05;;
31402;SDS011;18039;52.188;21.024;2023-03-01T09:35:27;33.90;;;17.52;;
31402;SDS011;18039;52.188;21.024;2023-03-01T09:40:28;33.60;;;15.55;;
31402;SDS011;18039;52.188;21.024;2023-03-01T09:43:07;35.80;;;18.08;;
31402;SDS011;18039;52.188;21.024;2023-03-01T09:45:59;34.85;;;17.88;;
31402;SDS011;18039;52.188;21.024;2023-03-01T09:48:41;37.38;;;17.55;;
31402;SDS011;18039;52.188;21.024;2023-03-01T09:51:18;33.58;;;17.75;;
31402;SDS011;18039;52.188;21.024;2023-03-01T09:54:05;34.03;;;17.05;;
31402;SDS011;18039;52.188;21.024;2023-03-01T09:57:13;34.45;;;16.92;;
31402;SDS011;18039;52.188;21.024;2023-03-01T10:02:51;32.70;;;16.17;;
31402;SDS011;18039;52.188;21.024;2023-03-01T10:05:31;45.03;;;19.83;;
31402;SDS011;18039;52.188;21.024;2023-03-01T10:10:40;33.40;;;15.77;;
31402;SDS011;18039;52.188;21.024;2023-03-01T10:13:44;32.85;;;15.13;;
31402;SDS011;18039;52.188;21.024;2023-03-01T10:19:26;49.78;;;17.67;;
31402;SDS011;18039;52.188;21.024;2023-03-01T10:22:04;33.60;;;15.25;;
31402;SDS011;18039;52.188;21.024;2023-03-01T10:25:01;42.67;;;17.48;;
31402;SDS011;18039;52.188;21.024;2023-03-01T10:27:37;35.85;;;15.57;;
31402;SDS011;18039;52.188;21.024;2023-03-01T10:30:29;34.33;;;15.95;;
31402;SDS011;18039;52.188;21.024;2023-03-01T10:36:04;29.25;;;14.35;;
31402;SDS011;18039;52.188;21.024;2023-03-01T10:41:53;28.75;;;16.00;;
31402;SDS011;18039;52.188;21.024;2023-03-01T10:47:21;33.60;;;14.10;;
31402;SDS011;18039;52.188;21.024;2023-03-01T10:50:05;27.67;;;13.07;;
31402;SDS011;18039;52.188;21.024;2023-03-01T10:52:55;23.85;;;12.57;;
31402;SDS011;18039;52.188;21.024;2023-03-01T11:03:21;31.40;;;12.77;;
31402;SDS011;18039;52.188;21.024;2023-03-01T11:05:54;23.85;;;11.48;;
31402;SDS011;18039;52.188;21.024;2023-03-01T11:11:33;28.02;;;12.43;;
31402;SDS011;18039;52.188;21.024;2023-03-01T11:17:00;23.35;;;11.55;;
31402;SDS011;18039;52.188;21.024;2023-03-01T11:19:33;23.35;;;11.52;;
31402;SDS011;18039;52.188;21.024;2023-03-01T11:24:45;21.10;;;10.80;;
31402;SDS011;18039;52.188;21.024;2023-03-01T11:27:36;25.30;;;11.38;;
31402;SDS011;18039;52.188;21.024;2023-03-01T11:30:24;25.45;;;12.80;;
31402;SDS011;18039;52.188;21.024;2023-03-01T11:33:05;27.48;;;11.95;;
31402;SDS011;18039;52.188;21.024;2023-03-01T11:35:47;39.30;;;13.65;;
31402;SDS011;18039;52.188;21.024;2023-03-01T11:38:26;23.60;;;11.25;;
31402;SDS011;18039;52.188;21.024;2023-03-01T11:57:58;25.58;;;10.50;;
31402;SDS011;18039;52.188;21.024;2023-03-01T12:00:55;23.55;;;10.63;;
31402;SDS011;18039;52.188;21.024;2023-03-01T12:06:24;22.73;;;11.07;;
31402;SDS011;18039;52.188;21.024;2023-03-01T12:20:27;22.27;;;11.98;;
31402;SDS011;18039;52.188;21.024;2023-03-01T12:51:23;61.28;;;16.00;;
31402;SDS011;18039;52.188;21.024;2023-03-01T12:53:57;22.20;;;11.32;;
31402;SDS011;18039;52.188;21.024;2023-03-01T12:56:31;29.85;;;11.90;;
31402;SDS011;18039;52.188;21.024;2023-03-01T13:12:50;21.08;;;10.45;;
31402;SDS011;18039;52.188;21.024;2023-03-01T13:17:53;22.10;;;11.15;;
31402;SDS011;18039;52.188;21.024;2023-03-01T13:26:05;22.83;;;11.98;;
31402;SDS011;18039;52.188;21.024;2023-03-01T13:42:32;21.58;;;10.25;;
31402;SDS011;18039;52.188;21.024;2023-03-01T13:45:14;20.90;;;11.40;;
31402;SDS011;18039;52.188;21.024;2023-03-01T13:47:47;21.73;;;11.15;;
31402;SDS011;18039;52.188;21.024;2023-03-01T13:50:27;16.58;;;10.50;;
31402;SDS011;18039;52.188;21.024;2023-03-01T13:53:03;18.48;;;10.65;;
31402;SDS011;18039;52.188;21.024;2023-03-01T13:55:41;19.52;;;9.52;;
31402;SDS011;18039;52.188;21.024;2023-03-01T13:58:18;24.92;;;11.75;;
31402;SDS011;18039;52.188;21.024;2023-03-01T14:03:40;21.77;;;10.75;;
31402;SDS011;18039;52.188;21.024;2023-03-01T14:06:14;19.00;;;10.45;;
31402;SDS011;18039;52.188;21.024;2023-03-01T14:08:49;20.13;;;11.13;;
31402;SDS011;18039;52.188;21.024;2023-03-01T14:19:43;19.73;;;10.82;;
31402;SDS011;18039;52.188;21.024;2023-03-01T14:22:22;26.77;;;11.68;;
31402;SDS011;18039;52.188;21.024;2023-03-01T14:25:05;25.15;;;12.05;;
31402;SDS011;18039;52.188;21.024;2023-03-01T14:30:51;26.45;;;12.68;;
31402;SDS011;18039;52.188;21.024;2023-03-01T14:33:27;19.80;;;10.73;;
31402;SDS011;18039;52.188;21.024;2023-03-01T14:35:58;18.88;;;11.23;;
31402;SDS011;18039;52.188;21.024;2023-03-01T14:38:41;22.08;;;11.77;;
31402;SDS011;18039;52.188;21.024;2023-03-01T14:41:13;28.48;;;12.45;;
31402;SDS011;18039;52.188;21.024;2023-03-01T14:43:49;20.90;;;10.32;;
31402;SDS011;18039;52.188;21.024;2023-03-01T14:46:20;23.67;;;11.25;;
31402;SDS011;18039;52.188;21.024;2023-03-01T14:49:10;15.45;;;9.55;;
31402;SDS011;18039;52.188;21.024;2023-03-01T14:52:04;18.90;;;10.43;;
31402;SDS011;18039;52.188;21.024;2023-03-01T14:54:50;33.20;;;12.77;;
31402;SDS011;18039;52.188;21.024;2023-03-01T14:57:24;17.67;;;10.30;;
31402;SDS011;18039;52.188;21.024;2023-03-01T14:59:57;19.48;;;10.55;;
31402;SDS011;18039;52.188;21.024;2023-03-01T15:02:31;21.63;;;11.38;;
31402;SDS011;18039;52.188;21.024;2023-03-01T15:05:00;23.02;;;12.30;;
31402;SDS011;18039;52.188;21.024;2023-03-01T15:07:38;25.13;;;12.10;;
31402;SDS011;18039;52.188;21.024;2023-03-01T15:10:15;23.00;;;12.18;;
31402;SDS011;18039;52.188;21.024;2023-03-01T15:12:51;25.42;;;12.05;;
31402;SDS011;18039;52.188;21.024;2023-03-01T15:18:01;21.85;;;12.00;;
31402;SDS011;18039;52.188;21.024;2023-03-01T15:20:33;22.63;;;12.25;;
31402;SDS011;18039;52.188;21.024;2023-03-01T15:23:12;24.98;;;11.70;;
31402;SDS011;18039;52.188;21.024;2023-03-01T15:25:52;22.70;;;11.65;;
31402;SDS011;18039;52.188;21.024;2023-03-01T15:28:31;19.98;;;11.45;;
31402;SDS011;18039;52.188;21.024;2023-03-01T15:31:19;22.25;;;11.80;;
31402;SDS011;18039;52.188;21.024;2023-03-01T15:34:07;24.30;;;12.35;;
31402;SDS011;18039;52.188;21.024;2023-03-01T15:36:46;22.05;;;12.25;;
31402;SDS011;18039;52.188;21.024;2023-03-01T15:42:13;25.98;;;12.77;;
31402;SDS011;18039;52.188;21.024;2023-03-01T15:48:02;35.85;;;14.43;;
31402;SDS011;18039;52.188;21.024;2023-03-01T15:50:34;23.60;;;13.10;;
31402;SDS011;18039;52.188;21.024;2023-03-01T15:53:11;26.52;;;14.32;;
31402;SDS011;18039;52.188;21.024;2023-03-01T15:55:45;29.55;;;14.00;;
31402;SDS011;18039;52.188;21.024;2023-03-01T15:58:21;28.85;;;14.40;;
31402;SDS011;18039;52.188;21.024;2023-03-01T16:00:53;29.70;;;14.55;;
31402;SDS011;18039;52.188;21.024;2023-03-01T16:03:30;25.52;;;13.52;;
31402;SDS011;18039;52.188;21.024;2023-03-01T16:06:00;29.75;;;14.45;;
31402;SDS011;18039;52.188;21.024;2023-03-01T16:11:01;31.95;;;14.15;;
31402;SDS011;18039;52.188;21.024;2023-03-01T16:13:35;33.28;;;13.35;;
31402;SDS011;18039;52.188;21.024;2023-03-01T16:16:04;30.92;;;14.05;;
31402;SDS011;18039;52.188;21.024;2023-03-01T16:21:05;28.15;;;13.23;;
31402;SDS011;18039;52.188;21.024;2023-03-01T16:23:37;30.88;;;13.43;;
31402;SDS011;18039;52.188;21.024;2023-03-01T16:26:06;28.05;;;13.90;;
31402;SDS011;18039;52.188;21.024;2023-03-01T16:28:40;27.73;;;13.57;;
31402;SDS011;18039;52.188;21.024;2023-03-01T16:31:10;30.42;;;14.45;;
31402;SDS011;18039;52.188;21.024;2023-03-01T16:33:42;30.13;;;13.40;;
31402;SDS011;18039;52.188;21.024;2023-03-01T16:36:13;30.73;;;15.10;;
31402;SDS011;18039;52.188;21.024;2023-03-01T16:38:45;34.17;;;14.65;;
31402;SDS011;18039;52.188;21.024;2023-03-01T16:41:17;27.00;;;13.55;;
31402;SDS011;18039;52.188;21.024;2023-03-01T16:43:50;29.88;;;13.63;;
31402;SDS011;18039;52.188;21.024;2023-03-01T16:46:25;25.70;;;13.55;;
31402;SDS011;18039;52.188;21.024;2023-03-01T16:48:57;28.95;;;13.02;;
31402;SDS011;18039;52.188;21.024;2023-03-01T16:51:28;34.88;;;14.18;;
31402;SDS011;18039;52.188;21.024;2023-03-01T16:53:59;29.30;;;13.38;;
31402;SDS011;18039;52.188;21.024;2023-03-01T16:56:30;29.58;;;13.25;;
31402;SDS011;18039;52.188;21.024;2023-03-01T17:01:34;30.00;;;13.18;;
31402;SDS011;18039;52.188;21.024;2023-03-01T17:04:11;27.92;;;12.75;;
31402;SDS011;18039;52.188;21.024;2023-03-01T17:06:43;31.50;;;13.73;;
31402;SDS011;18039;52.188;21.024;2023-03-01T17:11:50;28.95;;;13.82;;
31402;SDS011;18039;52.188;21.024;2023-03-01T17:14:21;27.70;;;13.02;;
31402;SDS011;18039;52.188;21.024;2023-03-01T17:16:52;25.10;;;12.88;;
31402;SDS011;18039;52.188;21.024;2023-03-01T17:19:20;30.42;;;14.07;;
31402;SDS011;18039;52.188;21.024;2023-03-01T17:21:51;30.65;;;14.38;;
31402;SDS011;18039;52.188;21.024;2023-03-01T17:24:24;33.47;;;14.25;;
31402;SDS011;18039;52.188;21.024;2023-03-01T17:26:53;30.65;;;13.75;;
31402;SDS011;18039;52.188;21.024;2023-03-01T17:29:29;30.65;;;14.82;;
31402;SDS011;18039;52.188;21.024;2023-03-01T17:31:59;37.42;;;15.43;;
31402;SDS011;18039;52.188;21.024;2023-03-01T17:34:31;27.25;;;14.05;;
31402;SDS011;18039;52.188;21.024;2023-03-01T17:37:01;28.13;;;14.95;;
31402;SDS011;18039;52.188;21.024;2023-03-01T17:39:33;32.10;;;15.48;;
31402;SDS011;18039;52.188;21.024;2023-03-01T17:42:02;31.35;;;15.07;;